Overview Statistics Trail Chart Weather Telemetry Raw packets
 

This is the latest recevied weather packets stored in our database for station/object IU8UOQ-5. If no packets are shown the sender has not sent any weather packets the latest 10 day(s).

<< 21 22 23 24 25 26 27 >>
Time Temp. Humidity Pressure Rain* Wind** Luminosity Snow
1787927813 40.56° C 16% 1006.7 hPa - - - -
1787926612 40° C 15% 1007 hPa - - - -
1787925411 40° C 15% 1007.2 hPa - - - -
1787924210 39.44° C 17% 1007.4 hPa - - - -
1787923008 39.44° C 17% 1007.5 hPa - - - -
1787921807 38.89° C 18% 1007.6 hPa - - - -
1787920606 38.89° C 17% 1007.7 hPa - - - -
1787919404 38.33° C 19% 1008 hPa - - - -
1787918203 37.78° C 20% 1008.2 hPa - - - -
1787917002 37.78° C 20% 1008.1 hPa - - - -
1787915801 37.78° C 21% 1008.3 hPa - - - -
1787914599 37.22° C 20% 1008.4 hPa - - - -
1787913398 37.78° C 19% 1008.4 hPa - - - -
1787912197 37.22° C 18% 1008.6 hPa - - - -
1787910996 36.67° C 19% 1008.8 hPa - - - -
1787909794 36.67° C 19% 1008.9 hPa - - - -
1787908593 36.11° C 19% 1009 hPa - - - -
1787907392 36.67° C 18% 1009.1 hPa - - - -
1787906190 36.11° C 18% 1009.2 hPa - - - -
1787904989 35° C 18% 1009.1 hPa - - - -
1787903788 34.44° C 22% 1009 hPa - - - -
1787902587 33.89° C 26% 1008.9 hPa - - - -
1787901385 32.22° C 29% 1008.7 hPa - - - -
1787900184 30.56° C 39% 1008.7 hPa - - - -
1787898983 30° C 40% 1008.8 hPa - - - -

* Rain since midnight (hover to see other rain measurements)
** Current wind speed in m/s (hover to see current wind gust speed)